Time;durP1;ratioP1;P1;durP2;ratioP2;P2;SDS_P1;SDS_P2;PMS_P1;PMS_P2;Temp;Humidity;BMP_temperature;BMP_pressure;BME280_temperature;BME280_humidity;BME280_pressure;Samples;Min_cycle;Max_cycle;Signal;HPM_P1;HPM_P2
2022/03/21 00:01:56;;;;;;;83.30;57.72;;;2.40;99.90;;;;;;5081359;28;20047;-47
2022/03/21 00:04:22;;;;;;;83.53;58.88;;;2.40;99.90;;;;;;5072008;28;20442;-46
2022/03/21 00:06:48;;;;;;;81.60;57.38;;;2.30;99.90;;;;;;5069297;28;20056;-46
2022/03/21 00:09:14;;;;;;;91.35;61.08;;;2.30;99.90;;;;;;5067303;28;20041;-46
2022/03/21 00:11:39;;;;;;;89.20;57.80;;;2.20;99.90;;;;;;5081378;28;20048;-45
2022/03/21 00:14:05;;;;;;;84.80;58.75;;;2.30;99.90;;;;;;5081339;28;20410;-46
2022/03/21 00:16:31;;;;;;;85.63;58.20;;;2.20;99.90;;;;;;5054299;28;20051;-46
2022/03/21 00:18:58;;;;;;;85.75;58.75;;;2.20;99.90;;;;;;5081958;28;20099;-45
2022/03/21 00:21:23;;;;;;;83.38;59.88;;;2.20;99.90;;;;;;5082177;28;20094;-46
2022/03/21 00:23:49;;;;;;;86.88;59.63;;;2.20;99.90;;;;;;5069435;28;20130;-46
2022/03/21 00:26:15;;;;;;;90.53;62.03;;;2.20;99.90;;;;;;5064967;28;20241;-47
2022/03/21 00:28:41;;;;;;;86.68;61.05;;;2.30;99.90;;;;;;5069756;28;20948;-47
2022/03/21 00:31:07;;;;;;;83.18;59.13;;;2.20;99.90;;;;;;5079766;28;20048;-42
2022/03/21 00:33:33;;;;;;;78.25;58.97;;;2.30;99.90;;;;;;5064606;28;20102;-46
2022/03/21 00:36:00;;;;;;;83.00;58.80;;;2.20;99.90;;;;;;5080011;28;20044;-43
2022/03/21 00:38:26;;;;;;;81.80;57.78;;;2.20;99.90;;;;;;5077903;28;20402;-45
2022/03/21 00:40:52;;;;;;;86.65;58.22;;;2.20;99.90;;;;;;5076851;28;20044;-45
2022/03/21 00:43:23;;;;;;;86.90;58.17;;;2.10;99.90;;;;;;5070454;28;20043;-50
2022/03/21 00:45:54;;;;;;;78.88;55.55;;;2.20;99.90;;;;;;5062312;28;20471;-47
2022/03/21 00:48:23;;;;;;;85.50;57.85;;;2.10;99.90;;;;;;5062556;28;20139;-49
2022/03/21 00:50:51;;;;;;;82.60;57.47;;;2.10;99.90;;;;;;5072553;28;20084;-46
2022/03/21 00:53:17;;;;;;;80.20;58.05;;;2.00;99.90;;;;;;5072057;28;20106;-50
2022/03/21 00:55:44;;;;;;;84.18;58.10;;;2.00;99.90;;;;;;5069670;28;20052;-46
2022/03/21 00:58:10;;;;;;;83.72;57.88;;;2.10;99.90;;;;;;5059257;28;20418;-44
2022/03/21 01:00:35;;;;;;;84.28;58.13;;;2.00;99.90;;;;;;5050146;28;20045;-45
2022/03/21 01:03:02;;;;;;;83.63;58.75;;;2.00;99.90;;;;;;5054023;28;20057;-45
2022/03/21 01:05:29;;;;;;;85.50;59.85;;;1.90;99.90;;;;;;5076184;28;20055;-46
2022/03/21 01:07:56;;;;;;;89.40;60.28;;;2.00;99.90;;;;;;5052093;28;20469;-46
2022/03/21 01:10:23;;;;;;;83.03;58.63;;;1.90;99.90;;;;;;5056941;28;20101;-43
2022/03/21 01:12:50;;;;;;;87.95;60.40;;;1.90;99.90;;;;;;5078350;28;20113;-45
2022/03/21 01:15:18;;;;;;;97.80;64.72;;;1.90;99.90;;;;;;5075386;28;20472;-45
2022/03/21 01:17:45;;;;;;;89.88;61.42;;;2.00;99.90;;;;;;5072154;28;20437;-46
2022/03/21 01:20:13;;;;;;;97.47;64.05;;;2.00;99.90;;;;;;5080060;28;20112;-43
2022/03/21 01:22:39;;;;;;;88.05;61.90;;;1.90;99.90;;;;;;5080211;28;20088;-45
2022/03/21 01:25:06;;;;;;;89.47;61.83;;;1.90;99.90;;;;;;5062831;28;20476;-46
2022/03/21 01:27:34;;;;;;;92.72;61.13;;;1.90;99.90;;;;;;5074647;28;20058;-44
2022/03/21 01:30:04;;;;;;;88.75;62.13;;;1.80;99.90;;;;;;5072849;28;20619;-45
2022/03/21 01:32:32;;;;;;;91.00;61.08;;;1.80;99.90;;;;;;5073235;28;20048;-46
2022/03/21 01:34:58;;;;;;;87.22;60.42;;;1.70;99.90;;;;;;5061426;28;20066;-46
2022/03/21 01:37:24;;;;;;;88.82;61.78;;;1.70;99.90;;;;;;5080285;28;20043;-45
2022/03/21 01:39:50;;;;;;;88.95;61.05;;;1.70;99.90;;;;;;5081417;28;20052;-46
2022/03/21 01:42:16;;;;;;;83.78;58.95;;;1.70;99.90;;;;;;5080762;28;20048;-47
2022/03/21 01:44:42;;;;;;;84.45;60.30;;;1.70;99.90;;;;;;5051574;28;20068;-47
2022/03/21 01:47:09;;;;;;;85.20;60.30;;;1.70;99.90;;;;;;5059519;28;20067;-48
2022/03/21 01:49:35;;;;;;;94.68;63.78;;;1.70;99.90;;;;;;5080676;28;20048;-46
2022/03/21 01:52:01;;;;;;;84.32;59.38;;;1.60;99.90;;;;;;5068380;28;20043;-43
2022/03/21 01:57:12;;;;;;;88.63;60.03;;;1.60;99.90;;;;;;5068653;28;20055;-46
2022/03/21 01:59:39;;;;;;;86.80;61.47;;;1.60;99.90;;;;;;5069800;28;20099;-46
2022/03/21 02:02:06;;;;;;;90.05;61.90;;;1.60;99.90;;;;;;5070982;28;20459;-46
2022/03/21 02:04:33;;;;;;;92.43;62.63;;;1.60;99.90;;;;;;5076205;28;20071;-49
2022/03/21 02:07:00;;;;;;;94.82;63.55;;;1.60;99.90;;;;;;5074849;28;20395;-47
2022/03/21 02:09:27;;;;;;;91.22;61.40;;;1.60;99.90;;;;;;5050011;28;20056;-44
2022/03/21 02:11:57;;;;;;;87.45;60.38;;;1.60;99.90;;;;;;5067637;28;20126;-45
2022/03/21 02:14:24;;;;;;;90.03;62.03;;;1.60;99.90;;;;;;5070510;28;20055;-42
2022/03/21 02:16:49;;;;;;;89.28;63.22;;;1.60;99.90;;;;;;5065365;28;20433;-45
2022/03/21 02:19:15;;;;;;;88.55;61.72;;;1.60;99.90;;;;;;5048969;28;20055;-46
2022/03/21 02:21:49;;;;;;;86.10;58.92;;;1.60;99.90;;;;;;5073559;28;20048;-45
2022/03/21 02:24:24;;;;;;;87.22;59.67;;;1.60;99.90;;;;;;5046074;28;20406;-45
2022/03/21 02:26:52;;;;;;;92.32;62.55;;;1.60;99.90;;;;;;5066604;28;20040;-45
2022/03/21 02:29:20;;;;;;;87.90;61.90;;;1.50;99.90;;;;;;5070419;28;20051;-46
2022/03/21 02:31:46;;;;;;;85.85;61.35;;;1.50;99.90;;;;;;5078800;28;20489;-46
2022/03/21 02:34:12;;;;;;;83.65;59.67;;;1.50;99.90;;;;;;5070983;28;20439;-46
2022/03/21 02:36:38;;;;;;;84.10;59.08;;;1.50;99.90;;;;;;5071803;28;20364;-43
2022/03/21 02:39:04;;;;;;;94.07;62.08;;;1.50;99.90;;;;;;5048538;28;20052;-45
2022/03/21 02:41:30;;;;;;;86.03;59.88;;;1.50;99.90;;;;;;5072647;28;20488;-46
2022/03/21 02:43:59;;;;;;;86.47;60.80;;;1.40;99.90;;;;;;5051354;28;20398;-44
2022/03/21 02:46:26;;;;;;;89.93;62.10;;;1.40;99.90;;;;;;5080362;28;20040;-46
2022/03/21 02:48:55;;;;;;;84.28;60.22;;;1.40;99.90;;;;;;5067422;28;20045;-46
2022/03/21 02:51:22;;;;;;;89.35;59.55;;;1.40;99.90;;;;;;5075643;28;20650;-45
2022/03/21 02:53:50;;;;;;;90.22;62.33;;;1.30;99.90;;;;;;5075348;28;20040;-46
2022/03/21 02:56:21;;;;;;;90.45;61.80;;;1.40;99.90;;;;;;5046214;28;20064;-47
2022/03/21 02:58:48;;;;;;;86.35;61.80;;;1.30;99.90;;;;;;5080908;28;20155;-46
2022/03/21 03:01:16;;;;;;;96.65;64.55;;;1.30;99.90;;;;;;5069723;28;20122;-49
2022/03/21 03:03:43;;;;;;;100.97;67.65;;;1.40;99.90;;;;;;5072360;28;20187;-46
2022/03/21 03:06:09;;;;;;;91.03;60.72;;;1.50;99.90;;;;;;5061567;28;20128;-45
2022/03/21 03:08:37;;;;;;;90.60;62.15;;;1.50;99.90;;;;;;5083314;28;20055;-46
2022/03/21 03:11:03;;;;;;;91.47;61.30;;;1.40;99.90;;;;;;5082874;28;20056;-45
2022/03/21 03:13:29;;;;;;;95.68;65.10;;;1.40;99.90;;;;;;5075395;28;20421;-46
2022/03/21 03:15:55;;;;;;;95.45;64.80;;;1.40;99.90;;;;;;5079698;28;20454;-47
2022/03/21 03:18:20;;;;;;;89.30;62.53;;;1.40;99.90;;;;;;5079274;28;20151;-48
2022/03/21 03:20:52;;;;;;;99.45;66.18;;;1.40;99.90;;;;;;5052887;28;20417;-47
2022/03/21 03:23:20;;;;;;;104.65;68.60;;;1.30;99.90;;;;;;5071450;28;20044;-48
2022/03/21 03:26:02;;;;;;;102.35;67.75;;;1.40;99.90;;;;;;5068762;28;20499;-47
2022/03/21 03:28:29;;;;;;;105.55;69.57;;;1.40;99.90;;;;;;5075378;28;20407;-46
2022/03/21 03:30:56;;;;;;;112.03;70.20;;;1.50;99.90;;;;;;5069838;28;20362;-47
2022/03/21 03:33:22;;;;;;;110.07;68.65;;;1.50;99.90;;;;;;5067333;28;20052;-46
2022/03/21 03:35:48;;;;;;;103.85;67.22;;;1.50;99.90;;;;;;5078888;28;20391;-46
2022/03/21 03:38:16;;;;;;;107.05;70.18;;;1.50;99.90;;;;;;5054686;28;20514;-45
2022/03/21 03:40:43;;;;;;;111.75;69.40;;;1.40;99.90;;;;;;5073765;28;20240;-46
2022/03/21 03:43:10;;;;;;;107.10;69.72;;;1.50;99.90;;;;;;5050635;28;20118;-45
2022/03/21 03:45:36;;;;;;;109.60;69.07;;;1.40;99.90;;;;;;5078693;28;20052;-45
2022/03/21 03:48:03;;;;;;;103.90;64.50;;;1.40;99.90;;;;;;5077704;28;20079;-44
2022/03/21 03:50:28;;;;;;;103.38;67.38;;;1.40;99.90;;;;;;5073215;28;20056;-45
2022/03/21 03:52:57;;;;;;;109.00;68.85;;;1.30;99.90;;;;;;5082447;28;20052;-46
2022/03/21 03:55:23;;;;;;;126.50;70.47;;;1.40;99.90;;;;;;5071936;28;20109;-47
2022/03/21 03:57:49;;;;;;;106.78;69.00;;;1.30;99.90;;;;;;5069073;28;20099;-45
2022/03/21 04:00:16;;;;;;;102.50;66.60;;;1.20;99.90;;;;;;5080520;28;20045;-44
2022/03/21 04:05:30;;;;;;;97.90;65.30;;;1.30;99.90;;;;;;5074183;28;20048;-46
2022/03/21 04:07:56;;;;;;;103.22;66.90;;;1.30;99.90;;;;;;5073074;28;20058;-44
2022/03/21 04:10:22;;;;;;;112.63;68.18;;;1.30;99.90;;;;;;5074080;28;20075;-45
2022/03/21 04:12:49;;;;;;;107.45;68.88;;;1.30;99.90;;;;;;5078306;28;20693;-45
2022/03/21 04:15:17;;;;;;;108.68;65.88;;;1.30;99.90;;;;;;5078817;28;20056;-47
2022/03/21 04:17:43;;;;;;;100.05;64.65;;;1.30;99.90;;;;;;5081575;28;20044;-45
2022/03/21 04:20:09;;;;;;;99.45;66.90;;;1.30;99.90;;;;;;5066872;28;20051;-43
2022/03/21 04:22:36;;;;;;;109.30;69.13;;;1.20;99.90;;;;;;5079758;28;20048;-49
2022/03/21 04:25:04;;;;;;;116.18;70.13;;;1.20;99.90;;;;;;5075005;28;20455;-46
2022/03/21 04:27:30;;;;;;;111.88;68.32;;;1.30;99.90;;;;;;5048588;28;20585;-48
2022/03/21 04:29:56;;;;;;;112.40;70.20;;;1.40;99.90;;;;;;5073076;28;20190;-44
2022/03/21 04:32:22;;;;;;;106.38;67.47;;;1.30;99.90;;;;;;5081072;28;20135;-47
2022/03/21 04:34:48;;;;;;;114.00;68.22;;;1.40;99.90;;;;;;5074823;28;20059;-45
2022/03/21 04:37:13;;;;;;;107.38;63.78;;;1.30;99.90;;;;;;5072125;28;20051;-46
2022/03/21 04:39:39;;;;;;;95.15;63.42;;;1.30;99.90;;;;;;5055995;28;20055;-49
2022/03/21 04:42:05;;;;;;;92.10;61.42;;;1.30;99.90;;;;;;5072028;28;20048;-46
2022/03/21 04:44:31;;;;;;;101.38;63.70;;;1.30;99.90;;;;;;5075343;28;20398;-46
2022/03/21 04:46:57;;;;;;;90.38;59.70;;;1.30;99.90;;;;;;5078857;28;20043;-45
2022/03/21 04:49:23;;;;;;;93.80;61.00;;;1.20;99.90;;;;;;5074132;28;20045;-45
2022/03/21 04:51:48;;;;;;;85.63;57.70;;;1.10;99.90;;;;;;5071690;28;20577;-47
2022/03/21 04:54:14;;;;;;;97.88;60.88;;;1.20;99.90;;;;;;5073540;28;20141;-45
2022/03/21 04:56:40;;;;;;;91.35;61.40;;;1.10;99.90;;;;;;5072816;28;20081;-45
2022/03/21 04:59:07;;;;;;;85.32;57.63;;;1.10;99.90;;;;;;5075475;28;20053;-46
2022/03/21 05:01:34;;;;;;;89.50;57.17;;;1.10;99.90;;;;;;5046508;28;20059;-44
2022/03/21 05:04:00;;;;;;;88.65;58.03;;;1.10;99.90;;;;;;5073553;28;20463;-45
2022/03/21 05:06:25;;;;;;;87.82;58.13;;;1.10;99.90;;;;;;5052975;28;20134;-42
2022/03/21 05:08:51;;;;;;;87.90;56.72;;;1.10;99.90;;;;;;5076618;28;20056;-48
2022/03/21 05:11:17;;;;;;;91.72;57.65;;;1.20;99.90;;;;;;5079067;28;20403;-47
2022/03/21 05:13:44;;;;;;;93.55;58.13;;;1.20;99.90;;;;;;5082403;28;20832;-46
2022/03/21 05:16:10;;;;;;;88.07;57.67;;;1.20;99.90;;;;;;5073670;28;20093;-44
2022/03/21 05:18:36;;;;;;;93.65;59.85;;;1.10;99.90;;;;;;5072596;28;20047;-45
2022/03/21 05:21:05;;;;;;;89.85;56.10;;;1.10;99.90;;;;;;5051218;28;20056;-45
2022/03/21 05:31:45;;;;;;;79.53;52.08;;;1.10;99.90;;;;;;5077270;28;20048;-45
2022/03/21 05:37:01;;;;;;;84.03;53.85;;;1.10;99.90;;;;;;5080443;28;20102;-45
2022/03/21 05:39:27;;;;;;;84.05;54.25;;;1.10;99.90;;;;;;5074690;28;20128;-49
2022/03/21 05:41:53;;;;;;;81.07;52.97;;;1.10;99.90;;;;;;5075588;28;20075;-46
2022/03/21 05:44:19;;;;;;;75.63;50.55;;;1.10;99.90;;;;;;5071443;28;20067;-46
2022/03/21 05:46:46;;;;;;;83.07;51.15;;;1.10;99.90;;;;;;5074078;28;20454;-46
2022/03/21 05:49:12;;;;;;;85.60;52.88;;;1.20;99.90;;;;;;5080442;28;20052;-46
2022/03/21 05:51:40;;;;;;;80.05;52.20;;;1.20;99.90;;;;;;5072252;28;20039;-48
2022/03/21 05:54:11;;;;;;;76.93;51.33;;;1.20;99.90;;;;;;5055617;28;20072;-49
2022/03/21 05:56:39;;;;;;;78.45;51.75;;;1.20;99.90;;;;;;5077492;28;20060;-46
2022/03/21 06:01:51;;;;;;;77.47;50.53;;;1.30;99.90;;;;;;5078379;28;20110;-48
2022/03/21 06:04:18;;;;;;;80.25;51.35;;;1.30;99.90;;;;;;5079515;28;20072;-46
2022/03/21 06:06:44;;;;;;;77.63;51.03;;;1.40;99.90;;;;;;5070164;28;20043;-45
2022/03/21 06:09:11;;;;;;;78.63;50.58;;;1.60;99.90;;;;;;5079671;28;20048;-44
2022/03/21 06:11:36;;;;;;;85.90;52.50;;;1.60;99.90;;;;;;5035379;28;20052;-47
2022/03/21 06:14:06;;;;;;;75.20;51.22;;;2.00;99.90;;;;;;5072087;28;20047;-46
2022/03/21 06:16:32;;;;;;;76.78;51.53;;;2.40;99.90;;;;;;5075030;28;20051;-45
2022/03/21 06:19:01;;;;;;;74.35;53.10;;;2.90;99.90;;;;;;5055570;28;20064;-47
2022/03/21 06:21:42;;;;;;;75.93;51.75;;;3.50;99.90;;;;;;5080255;28;20048;-54
2022/03/21 06:26:33;;;;;;;66.25;48.00;;;4.70;99.90;;;;;;5047995;28;20850;-45
2022/03/21 06:28:59;;;;;;;63.13;47.28;;;5.20;99.90;;;;;;5048860;28;20071;-45
2022/03/21 06:31:25;;;;;;;62.03;47.85;;;5.80;99.90;;;;;;5046459;28;20052;-44
2022/03/21 06:33:51;;;;;;;59.20;47.50;;;6.40;99.90;;;;;;5049203;28;20414;-46
2022/03/21 06:36:17;;;;;;;55.85;44.60;;;6.80;99.90;;;;;;5052750;28;20063;-46
2022/03/21 06:38:43;;;;;;;60.72;44.03;;;7.20;99.90;;;;;;5059049;28;20040;-46
2022/03/21 06:41:09;;;;;;;57.58;44.17;;;7.40;99.90;;;;;;5047803;28;20075;-47
2022/03/21 06:43:35;;;;;;;55.92;42.30;;;7.70;99.90;;;;;;5054564;28;20443;-47
2022/03/21 06:46:01;;;;;;;48.72;40.75;;;8.00;99.90;;;;;;5055495;28;20561;-46
2022/03/21 06:48:30;;;;;;;44.92;39.15;;;8.30;99.90;;;;;;5054261;28;20055;-47
2022/03/21 06:50:56;;;;;;;46.65;38.97;;;8.50;99.90;;;;;;5057458;28;20104;-44
2022/03/21 06:53:27;;;;;;;47.90;40.00;;;8.50;99.90;;;;;;5044821;28;20470;-48
2022/03/21 06:55:52;;;;;;;46.05;39.88;;;8.30;99.90;;;;;;5055518;28;20048;-47
2022/03/21 06:58:18;;;;;;;48.10;39.13;;;8.00;99.90;;;;;;5063436;28;20094;-47
2022/03/21 07:00:46;;;;;;;45.38;40.38;;;7.80;99.90;;;;;;5036162;28;20063;-47
2022/03/21 07:03:17;;;;;;;48.78;41.25;;;7.50;99.90;;;;;;5053700;28;20044;-48
2022/03/21 07:05:43;;;;;;;43.47;37.97;;;7.30;99.90;;;;;;5056234;28;20559;-47
2022/03/21 07:08:09;;;;;;;41.13;36.60;;;7.20;99.90;;;;;;5053374;28;20499;-45
2022/03/21 07:10:35;;;;;;;42.95;38.22;;;7.20;99.90;;;;;;5055480;28;20051;-46
2022/03/21 07:13:02;;;;;;;44.47;36.95;;;7.10;99.90;;;;;;5061140;28;20154;-47
2022/03/21 07:15:28;;;;;;;41.00;35.95;;;7.10;99.90;;;;;;5056859;28;20060;-46
2022/03/21 07:17:58;;;;;;;40.03;35.47;;;7.10;99.90;;;;;;5061936;28;20048;-47
2022/03/21 07:20:27;;;;;;;40.72;35.08;;;7.10;99.90;;;;;;5030517;28;20060;-47
2022/03/21 07:22:55;;;;;;;38.88;33.13;;;7.30;99.90;;;;;;5028321;28;20064;-47
2022/03/21 07:25:26;;;;;;;37.50;33.05;;;7.30;99.90;;;;;;5057765;28;20060;-47
2022/03/21 07:27:52;;;;;;;37.20;32.15;;;7.40;99.90;;;;;;5065402;28;20161;-49
2022/03/21 07:30:19;;;;;;;37.05;31.55;;;7.50;99.90;;;;;;5036956;28;20504;-47
2022/03/21 07:32:45;;;;;;;38.10;33.92;;;7.50;99.90;;;;;;5054620;28;20057;-46
2022/03/21 07:35:12;;;;;;;38.55;33.25;;;7.60;99.90;;;;;;5050151;28;20060;-46
2022/03/21 07:37:54;;;;;;;37.33;32.45;;;7.60;99.90;;;;;;5060384;28;20057;-46
2022/03/21 07:40:20;;;;;;;33.35;29.70;;;7.70;99.90;;;;;;5060549;28;20510;-47
2022/03/21 07:42:47;;;;;;;34.58;30.75;;;7.90;99.90;;;;;;5062878;28;20062;-47
2022/03/21 07:47:59;;;;;;;32.17;28.67;;;8.00;99.90;;;;;;5047800;28;20053;-47
2022/03/21 07:50:25;;;;;;;33.60;27.70;;;8.10;99.90;;;;;;5051630;28;20044;-48
2022/03/21 07:52:53;;;;;;;32.28;27.25;;;8.20;99.90;;;;;;5046397;28;20528;-48
2022/03/21 07:55:19;;;;;;;33.67;27.33;;;8.20;99.90;;;;;;5059279;28;20558;-46
2022/03/21 07:57:47;;;;;;;30.50;27.02;;;8.30;99.90;;;;;;5057059;28;20073;-47
2022/03/21 08:00:14;;;;;;;30.02;25.60;;;8.30;99.90;;;;;;5037693;28;20056;-47
2022/03/21 08:02:43;;;;;;;29.25;24.90;;;8.40;99.90;;;;;;5053052;28;20056;-46
2022/03/21 08:05:09;;;;;;;35.45;27.02;;;8.50;99.90;;;;;;5050440;28;20064;-47
2022/03/21 08:07:35;;;;;;;30.10;26.60;;;8.60;99.90;;;;;;5048741;28;20079;-45
2022/03/21 08:10:03;;;;;;;33.30;26.33;;;8.70;99.90;;;;;;5058350;28;20478;-46
2022/03/21 08:12:29;;;;;;;30.60;26.25;;;8.80;99.90;;;;;;5055537;28;20044;-50
2022/03/21 08:14:58;;;;;;;32.03;25.60;;;8.90;99.90;;;;;;5054690;28;20514;-47
2022/03/21 08:17:26;;;;;;;35.72;26.90;;;9.00;99.90;;;;;;5037340;28;20495;-49
2022/03/21 08:19:52;;;;;;;30.67;25.42;;;9.00;99.90;;;;;;5053384;28;20052;-46
2022/03/21 08:22:19;;;;;;;33.97;25.20;;;9.10;99.90;;;;;;5057473;28;20040;-49
2022/03/21 08:24:47;;;;;;;30.90;25.45;;;9.20;99.90;;;;;;5053555;28;20056;-49
2022/03/21 08:27:14;;;;;;;31.10;24.60;;;9.30;99.90;;;;;;5035619;28;20048;-51
2022/03/21 08:29:40;;;;;;;29.98;25.48;;;9.40;99.90;;;;;;5055796;28;20043;-47
2022/03/21 08:32:07;;;;;;;29.40;25.70;;;9.50;99.90;;;;;;5051017;28;20127;-46
2022/03/21 08:34:32;;;;;;;32.85;25.88;;;9.50;99.90;;;;;;5052173;28;20083;-51
2022/03/21 08:37:01;;;;;;;33.65;26.52;;;9.60;99.90;;;;;;5054966;28;20557;-48
2022/03/21 08:39:27;;;;;;;32.08;26.80;;;9.70;99.90;;;;;;5060088;28;20512;-48
2022/03/21 08:41:53;;;;;;;37.40;27.40;;;9.70;99.90;;;;;;5058844;28;20368;-48
2022/03/21 08:44:20;;;;;;;30.05;25.52;;;9.90;99.90;;;;;;5059421;28;20502;-50
2022/03/21 08:46:47;;;;;;;30.27;25.08;;;10.00;99.90;;;;;;5053765;28;20052;-48
2022/03/21 08:49:26;;;;;;;27.77;23.55;;;10.10;99.90;;;;;;5053978;28;20040;-44
2022/03/21 08:51:51;;;;;;;29.25;23.67;;;10.20;99.90;;;;;;5056354;28;20091;-47
2022/03/21 08:54:17;;;;;;;27.50;23.10;;;10.20;99.90;;;;;;5031494;28;20536;-47
2022/03/21 08:56:43;;;;;;;26.00;22.50;;;10.30;99.90;;;;;;5053705;28;20033;-48
2022/03/21 08:59:09;;;;;;;31.45;23.42;;;10.40;99.90;;;;;;5050830;28;20052;-47
2022/03/21 09:01:35;;;;;;;30.40;23.67;;;10.50;99.90;;;;;;5055960;28;20600;-48
2022/03/21 09:04:01;;;;;;;27.77;23.70;;;10.60;99.90;;;;;;5055161;28;20468;-49
2022/03/21 09:06:28;;;;;;;29.65;24.42;;;10.80;99.90;;;;;;5054144;28;20056;-48
2022/03/21 09:08:54;;;;;;;33.88;24.83;;;10.90;99.90;;;;;;5037616;28;20060;-48
2022/03/21 09:11:19;;;;;;;29.40;23.80;;;11.00;99.90;;;;;;5055222;28;20049;-47
2022/03/21 09:13:49;;;;;;;30.10;24.30;;;11.10;99.90;;;;;;5032062;28;20550;-49
2022/03/21 09:16:18;;;;;;;31.27;25.20;;;11.10;99.90;;;;;;5041574;28;20060;-47
2022/03/21 09:18:43;;;;;;;29.10;24.88;;;11.20;99.90;;;;;;5047100;28;20131;-48
2022/03/21 09:21:11;;;;;;;30.52;24.75;;;11.40;99.90;;;;;;5053347;28;20522;-49
2022/03/21 09:23:37;;;;;;;31.42;26.42;;;11.40;99.90;;;;;;5053314;28;20058;-49
2022/03/21 09:26:04;;;;;;;33.03;27.27;;;11.40;99.90;;;;;;5045788;28;20049;-50
2022/03/21 09:28:31;;;;;;;34.17;27.30;;;11.60;99.90;;;;;;5045434;28;20393;-50
2022/03/21 09:30:57;;;;;;;34.88;27.83;;;11.70;99.90;;;;;;5050545;28;20094;-50
2022/03/21 09:33:23;;;;;;;32.58;26.75;;;11.70;99.90;;;;;;5049750;28;20052;-50
2022/03/21 09:35:49;;;;;;;32.90;26.75;;;11.80;99.90;;;;;;5049165;28;20135;-50
2022/03/21 09:38:16;;;;;;;30.80;25.98;;;11.80;99.90;;;;;;5059343;28;20437;-53
2022/03/21 09:40:43;;;;;;;32.78;26.60;;;11.80;99.90;;;;;;5058746;28;20059;-50
2022/03/21 09:43:14;;;;;;;30.05;25.25;;;11.90;99.90;;;;;;5051995;28;22421;-50
2022/03/21 09:45:41;;;;;;;28.95;25.35;;;11.90;99.90;;;;;;5049438;28;20047;-48
2022/03/21 09:48:16;;;;;;;33.30;25.63;;;12.00;99.90;;;;;;5041056;28;20065;-47
2022/03/21 09:50:45;;;;;;;31.17;26.65;;;12.10;99.90;;;;;;5043384;28;20060;-49
2022/03/21 09:53:13;;;;;;;29.10;25.45;;;12.10;99.90;;;;;;5041669;28;20486;-51
2022/03/21 09:55:40;;;;;;;34.10;26.20;;;12.20;99.90;;;;;;5064456;28;20033;-48
2022/03/21 09:58:09;;;;;;;31.77;26.58;;;12.30;99.90;;;;;;5054300;28;20044;-52
2022/03/21 10:00:37;;;;;;;27.25;24.27;;;12.40;99.90;;;;;;5037528;28;20889;-53
2022/03/21 10:03:03;;;;;;;31.75;25.95;;;12.40;99.90;;;;;;5029254;28;20072;-50
2022/03/21 10:05:40;;;;;;;32.65;25.33;;;12.40;99.90;;;;;;5053378;28;20045;-49
2022/03/21 10:08:10;;;;;;;29.00;24.75;;;12.50;99.90;;;;;;5059135;28;20075;-49
2022/03/21 10:10:35;;;;;;;29.27;25.00;;;12.50;99.90;;;;;;5035768;28;20147;-49
2022/03/21 10:13:03;;;;;;;28.13;23.42;;;12.60;99.90;;;;;;5035921;28;20052;-49
2022/03/21 10:15:29;;;;;;;26.45;23.45;;;12.70;99.90;;;;;;5036895;28;20068;-53
2022/03/21 10:18:06;;;;;;;31.88;24.85;;;12.70;99.90;;;;;;5038189;28;20060;-51
2022/03/21 10:20:33;;;;;;;30.88;25.13;;;12.70;99.90;;;;;;5056984;28;20081;-52
2022/03/21 10:23:18;;;;;;;28.90;24.83;;;12.80;99.90;;;;;;5064950;28;20090;-50
2022/03/21 10:25:44;;;;;;;30.20;23.77;;;12.80;99.90;;;;;;5050849;28;20060;-49
2022/03/21 10:28:30;;;;;;;32.10;25.73;;;12.80;99.90;;;;;;5044258;28;20195;-48
2022/03/21 10:30:56;;;;;;;29.98;23.83;;;12.80;99.90;;;;;;5044926;28;20048;-48
2022/03/21 10:33:24;;;;;;;26.27;23.48;;;12.90;99.90;;;;;;5045324;28;20063;-54
2022/03/21 10:35:50;;;;;;;26.98;21.92;;;12.90;99.90;;;;;;5039339;28;20041;-52
2022/03/21 10:38:38;;;;;;;28.42;22.85;;;12.90;99.90;;;;;;5028611;28;20041;-52
2022/03/21 10:41:08;;;;;;;24.58;21.52;;;13.00;99.90;;;;;;5010872;28;20495;-51
2022/03/21 10:43:34;;;;;;;29.88;22.58;;;13.10;99.90;;;;;;5016778;28;20056;-49
2022/03/21 10:46:02;;;;;;;24.92;20.48;;;13.10;99.90;;;;;;5042924;28;20423;-48
2022/03/21 10:48:32;;;;;;;28.85;22.60;;;12.90;99.90;;;;;;5036452;28;20052;-54
2022/03/21 10:51:03;;;;;;;25.02;22.30;;;12.80;99.90;;;;;;5035216;28;20045;-54
2022/03/21 10:53:39;;;;;;;26.38;22.42;;;12.90;99.90;;;;;;5035895;28;20571;-54
2022/03/21 10:56:09;;;;;;;22.42;19.23;;;13.00;99.90;;;;;;5029836;28;20049;-54
2022/03/21 10:58:42;;;;;;;23.60;20.42;;;13.10;99.90;;;;;;5032363;28;20092;-53
2022/03/21 11:01:23;;;;;;;25.77;22.02;;;13.10;99.90;;;;;;5043915;28;20055;-50
2022/03/21 11:03:51;;;;;;;24.45;20.80;;;13.10;99.90;;;;;;5043474;28;20518;-54
2022/03/21 11:06:18;;;;;;;26.00;22.75;;;13.20;99.90;;;;;;5044451;28;20049;-55
2022/03/21 11:08:50;;;;;;;27.27;24.35;;;13.20;99.90;;;;;;5040918;28;20049;-55
2022/03/21 11:11:16;;;;;;;26.52;21.38;;;13.20;99.90;;;;;;5032596;28;20091;-56
2022/03/21 11:13:42;;;;;;;25.55;22.58;;;13.20;99.90;;;;;;5048109;28;20099;-55
2022/03/21 11:16:09;;;;;;;23.45;19.38;;;13.20;99.90;;;;;;5044682;28;20126;-55
2022/03/21 11:18:35;;;;;;;23.58;20.58;;;13.30;99.90;;;;;;5036478;28;20040;-54
2022/03/21 11:21:01;;;;;;;27.73;20.95;;;13.30;99.90;;;;;;5045870;28;20056;-55
2022/03/21 11:23:27;;;;;;;26.48;21.52;;;13.30;99.90;;;;;;5033080;28;20386;-54
2022/03/21 11:25:55;;;;;;;26.20;23.23;;;13.40;99.90;;;;;;5043099;28;20372;-55
2022/03/21 11:28:37;;;;;;;26.80;21.33;;;13.40;99.90;;;;;;5063537;28;20049;-55
2022/03/21 11:32:00;;;;;;;23.73;19.15;;;13.50;99.90;;;;;;5060679;28;20076;-55
2022/03/21 11:34:42;;;;;;;26.27;20.92;;;13.50;98.70;;;;;;4994104;28;20049;-53
2022/03/21 11:37:33;;;;;;;28.20;21.55;;;13.60;98.10;;;;;;4992782;28;20182;-54
2022/03/21 11:40:34;;;;;;;25.85;21.10;;;13.60;98.40;;;;;;4955711;28;20063;-55
2022/03/21 11:43:18;;;;;;;27.88;22.65;;;13.70;97.80;;;;;;4985989;28;20050;-55
2022/03/21 11:45:47;;;;;;;26.17;21.70;;;13.70;97.90;;;;;;4992270;28;20291;-55
2022/03/21 11:48:19;;;;;;;29.20;23.27;;;13.70;96.60;;;;;;4984922;28;20581;-53
2022/03/21 11:51:13;;;;;;;27.90;21.95;;;13.70;97.60;;;;;;4979565;28;20100;-56
2022/03/21 11:53:49;;;;;;;27.73;22.33;;;13.70;96.80;;;;;;4941468;28;20063;-55
2022/03/21 11:56:41;;;;;;;26.00;20.95;;;13.70;98.00;;;;;;4941869;29;20055;-50
2022/03/21 11:59:07;;;;;;;28.02;21.45;;;13.80;95.20;;;;;;4927185;29;20406;-56
2022/03/21 12:01:34;;;;;;;28.75;22.92;;;13.80;97.10;;;;;;4941858;29;20129;-53
2022/03/21 12:04:24;;;;;;;25.70;21.45;;;13.90;97.60;;;;;;4942613;29;20150;-51
2022/03/21 12:06:50;;;;;;;27.25;21.75;;;13.80;94.80;;;;;;4975007;28;20047;-56
2022/03/21 12:09:16;;;;;;;27.52;22.05;;;13.90;94.80;;;;;;4976566;28;20548;-56
2022/03/21 12:11:42;;;;;;;27.95;22.50;;;13.90;96.00;;;;;;4970801;28;20062;-56
2022/03/21 12:14:29;;;;;;;26.60;23.15;;;13.90;96.10;;;;;;4979469;28;20053;-54
2022/03/21 12:17:12;;;;;;;25.52;21.23;;;13.90;96.80;;;;;;4974446;28;20112;-55
2022/03/21 12:20:01;;;;;;;24.25;21.13;;;13.90;94.30;;;;;;4975080;28;20056;-52
2022/03/21 12:22:27;;;;;;;25.42;22.13;;;13.90;95.00;;;;;;4980226;28;20062;-54
2022/03/21 12:24:53;;;;;;;26.52;22.70;;;13.90;94.30;;;;;;4972043;28;20721;-56
2022/03/21 12:27:47;;;;;;;27.33;22.40;;;13.90;95.00;;;;;;4948920;28;20073;-55
2022/03/21 12:30:27;;;;;;;27.13;22.10;;;14.00;97.90;;;;;;4987827;28;20084;-55
2022/03/21 12:33:13;;;;;;;24.77;22.05;;;14.00;96.80;;;;;;5048509;28;20060;-56
2022/03/21 12:35:43;;;;;;;29.45;22.35;;;14.00;97.30;;;;;;5053843;28;20045;-55
2022/03/21 12:38:21;;;;;;;28.17;23.02;;;13.90;96.10;;;;;;5047297;28;20136;-54
2022/03/21 12:40:50;;;;;;;27.27;21.48;;;13.90;96.10;;;;;;5020548;28;20067;-59
2022/03/21 12:43:47;;;;;;;32.72;24.05;;;13.80;96.50;;;;;;5044866;28;20087;-55
2022/03/21 12:46:16;;;;;;;27.92;22.05;;;13.90;96.50;;;;;;5012200;28;20111;-56
2022/03/21 12:48:53;;;;;;;25.50;20.98;;;14.00;97.00;;;;;;5049782;28;20080;-55
2022/03/21 12:51:32;;;;;;;25.02;21.48;;;14.10;96.90;;;;;;5040662;28;20390;-55
2022/03/21 12:54:03;;;;;;;26.77;22.55;;;14.10;96.20;;;;;;5006871;28;20053;-55
2022/03/21 12:56:29;;;;;;;29.17;21.98;;;14.20;96.70;;;;;;5040950;28;20543;-56
2022/03/21 12:59:04;;;;;;;29.20;22.23;;;14.20;96.10;;;;;;5041823;28;20103;-53
2022/03/21 13:01:32;;;;;;;24.95;22.15;;;14.20;96.10;;;;;;5023339;28;20061;-55
2022/03/21 13:12:41;;;;;;;24.70;20.73;;;14.40;95.00;;;;;;5035637;28;20056;-53
2022/03/21 13:15:09;;;;;;;24.35;21.02;;;14.30;97.20;;;;;;5054935;28;20347;-52